createdAt,value
2019-01-29T00:04:58.756Z,11.40
2019-01-29T00:10:00.967Z,11.10
2019-01-29T00:15:04.617Z,13.03
2019-01-29T00:20:07.555Z,11.73
2019-01-29T00:25:10.220Z,11.63
2019-01-29T00:30:13.213Z,11.80
2019-01-29T00:35:15.498Z,11.60
2019-01-29T00:40:18.473Z,12.73
2019-01-29T00:45:21.496Z,13.70
2019-01-29T00:50:23.840Z,13.70
2019-01-29T00:55:26.268Z,13.30
2019-01-29T01:00:28.588Z,12.77
2019-01-29T01:05:31.265Z,13.00
2019-01-29T01:10:34.361Z,11.00
2019-01-29T01:15:37.143Z,10.37
2019-01-29T01:20:39.961Z,9.63
2019-01-29T01:25:42.456Z,9.03
2019-01-29T01:30:44.652Z,9.83
2019-01-29T01:35:47.735Z,10.17
2019-01-29T01:40:50.478Z,10.20
2019-01-29T01:45:53.029Z,9.23
2019-01-29T01:50:55.605Z,8.50
2019-01-29T01:55:58.622Z,8.97
2019-01-29T02:01:01.630Z,9.50
2019-01-29T02:06:04.489Z,8.30
2019-01-29T02:11:06.783Z,7.60
2019-01-29T02:16:10.090Z,7.10
2019-01-29T02:21:12.463Z,6.00
2019-01-29T02:26:14.663Z,7.00
2019-01-29T02:31:17.596Z,7.50
2019-01-29T02:36:20.710Z,6.80
2019-01-29T02:41:23.445Z,6.53
2019-01-29T02:46:26.042Z,6.13
2019-01-29T02:51:28.400Z,6.03
2019-01-29T02:56:30.956Z,5.97
2019-01-29T03:01:33.313Z,5.87
2019-01-29T03:06:35.767Z,6.40
2019-01-29T03:11:38.067Z,6.37
2019-01-29T03:16:40.480Z,5.87
2019-01-29T03:21:42.703Z,5.77
2019-01-29T03:26:45.631Z,6.70
2019-01-29T03:31:49.037Z,6.90
2019-01-29T03:36:51.856Z,7.00
2019-01-29T03:41:54.154Z,7.10
2019-01-29T03:46:56.385Z,7.93
2019-01-29T03:51:59.309Z,8.33
2019-01-29T03:57:01.504Z,8.00
2019-01-29T04:02:04.047Z,8.73
2019-01-29T04:07:06.340Z,8.17
2019-01-29T04:12:08.859Z,8.63
2019-01-29T04:17:11.971Z,9.13
2019-01-29T04:22:14.396Z,9.97
2019-01-29T04:27:16.845Z,9.40
2019-01-29T04:32:19.150Z,10.37
2019-01-29T04:37:21.519Z,9.53
2019-01-29T04:42:23.739Z,10.20
2019-01-29T04:47:26.005Z,9.60
2019-01-29T04:52:28.361Z,9.50
2019-01-29T04:57:30.749Z,9.80
2019-01-29T05:02:33.052Z,8.27
2019-01-29T05:07:35.525Z,8.50
2019-01-29T05:12:37.876Z,9.13
2019-01-29T05:17:40.209Z,8.87
2019-01-29T05:22:42.499Z,8.17
2019-01-29T05:27:45.198Z,8.90
2019-01-29T05:32:48.115Z,8.57
2019-01-29T05:37:50.776Z,8.57
2019-01-29T05:42:53.306Z,8.30
2019-01-29T05:47:56.069Z,8.27
2019-01-29T05:52:58.496Z,8.27
2019-01-29T05:58:00.719Z,7.70
2019-01-29T06:03:03.446Z,7.83
2019-01-29T06:08:06.243Z,7.53
2019-01-29T06:13:08.478Z,7.13
2019-01-29T06:18:11.787Z,7.77
2019-01-29T06:23:14.350Z,7.30
2019-01-29T06:28:18.662Z,7.70
2019-01-29T06:33:21.613Z,7.50
2019-01-29T06:38:23.970Z,6.50
2019-01-29T06:43:28.118Z,6.60
2019-01-29T06:48:30.439Z,6.60
2019-01-29T06:53:32.680Z,6.40
2019-01-29T06:58:35.494Z,6.00
2019-01-29T07:03:37.827Z,5.67
2019-01-29T07:08:40.198Z,6.80
2019-01-29T07:13:42.507Z,6.70
2019-01-29T07:19:03.205Z,7.00
2019-01-29T07:24:05.901Z,6.30
2019-01-29T07:29:08.866Z,6.30
2019-01-29T07:34:11.879Z,6.50
2019-01-29T07:39:14.199Z,7.70
2019-01-29T07:44:16.536Z,8.03
2019-01-29T07:49:19.448Z,7.43
2019-01-29T07:54:22.122Z,7.73
2019-01-29T07:59:32.956Z,8.07
2019-01-29T08:04:30.180Z,8.27
2019-01-29T08:09:33.001Z,9.30
2019-01-29T08:14:35.684Z,11.53
2019-01-29T08:19:38.405Z,12.07
2019-01-29T08:24:42.202Z,11.33
2019-01-29T08:29:44.791Z,9.60
2019-01-29T08:34:47.384Z,9.57
2019-01-29T08:39:50.063Z,9.67
2019-01-29T08:44:52.775Z,9.00
2019-01-29T08:49:55.249Z,8.77
2019-01-29T08:54:57.784Z,8.80
2019-01-29T09:00:02.600Z,8.27
2019-01-29T09:05:07.539Z,7.17
2019-01-29T09:10:13.179Z,7.37
2019-01-29T09:15:16.063Z,9.23
2019-01-29T09:20:19.334Z,8.53
2019-01-29T09:25:22.927Z,7.63
2019-01-29T09:30:25.473Z,7.83
2019-01-29T09:35:27.721Z,8.60
2019-01-29T09:40:30.918Z,7.73
2019-01-29T09:45:33.384Z,8.23
2019-01-29T09:50:36.145Z,8.20
2019-01-29T09:55:38.985Z,8.17
2019-01-29T10:00:41.687Z,7.63
2019-01-29T10:05:43.980Z,8.60
2019-01-29T10:10:46.776Z,8.67
2019-01-29T10:15:49.129Z,8.33
2019-01-29T10:20:53.808Z,7.70
2019-01-29T10:25:56.494Z,7.77
2019-01-29T10:30:59.126Z,7.33
2019-01-29T10:36:01.573Z,7.70
2019-01-29T10:41:04.286Z,6.97
2019-01-29T10:46:06.978Z,8.00
2019-01-29T10:51:09.583Z,7.07
2019-01-29T10:56:16.207Z,7.13
2019-01-29T11:01:21.693Z,7.60
2019-01-29T11:06:24.699Z,7.93
2019-01-29T11:11:27.673Z,7.03
2019-01-29T11:16:30.733Z,6.77
2019-01-29T11:21:33.885Z,7.77
2019-01-29T11:26:36.422Z,7.43
2019-01-29T11:31:39.074Z,8.20
2019-01-29T11:36:42.053Z,8.47
2019-01-29T11:41:44.518Z,8.87
2019-01-29T11:46:47.314Z,8.27
2019-01-29T11:51:49.611Z,10.03
2019-01-29T11:56:52.750Z,9.37
2019-01-29T12:01:56.705Z,8.67
2019-01-29T12:06:59.258Z,8.53
2019-01-29T12:12:01.583Z,7.47
2019-01-29T12:17:03.903Z,6.97
2019-01-29T12:22:09.615Z,8.10
2019-01-29T12:27:12.048Z,6.57
2019-01-29T12:32:14.314Z,7.43
2019-01-29T12:37:23.441Z,5.90
2019-01-29T12:42:35.735Z,6.10
2019-01-29T12:47:39.942Z,6.33
2019-01-29T13:01:15.328Z,6.47
2019-01-29T13:06:11.420Z,7.43
2019-01-29T13:11:13.983Z,6.47
2019-01-29T13:16:16.355Z,6.23
2019-01-29T13:21:21.369Z,6.70
2019-01-29T13:26:29.936Z,6.03
2019-01-29T13:31:28.513Z,5.87
2019-01-29T13:36:31.223Z,5.50
2019-01-29T13:41:35.508Z,6.37
2019-01-29T13:46:37.732Z,5.63
2019-01-29T13:51:40.581Z,5.97
2019-01-29T13:56:43.448Z,4.77
2019-01-29T14:01:45.807Z,5.23
2019-01-29T14:06:48.420Z,4.70
2019-01-29T14:11:51.015Z,5.70
2019-01-29T14:16:53.891Z,5.77
2019-01-29T14:21:56.110Z,4.67
2019-01-29T14:26:58.976Z,4.60
2019-01-29T14:32:01.881Z,4.83
2019-01-29T14:37:04.385Z,5.77
2019-01-29T14:42:06.667Z,5.33
2019-01-29T14:47:09.346Z,5.30
2019-01-29T14:52:11.904Z,5.57
2019-01-29T14:57:14.625Z,6.00
2019-01-29T15:02:17.436Z,4.83
2019-01-29T15:07:19.956Z,6.37
2019-01-29T15:12:22.429Z,5.30
2019-01-29T15:17:50.423Z,5.60
2019-01-29T15:22:53.872Z,6.13
2019-01-29T15:27:56.724Z,6.03
2019-01-29T15:32:59.448Z,5.33
2019-01-29T15:38:02.290Z,6.13
2019-01-29T15:43:04.843Z,6.13
2019-01-29T15:48:07.282Z,6.57
2019-01-29T15:53:10.715Z,6.60
2019-01-29T15:58:13.809Z,7.50
2019-01-29T16:03:16.608Z,7.40
2019-01-29T16:08:18.946Z,7.83
2019-01-29T16:13:21.415Z,7.77
2019-01-29T16:18:23.860Z,8.07
2019-01-29T16:23:26.605Z,7.80
2019-01-29T16:28:29.378Z,8.63
2019-01-29T16:33:31.847Z,8.53
2019-01-29T16:38:34.462Z,7.83
2019-01-29T16:43:37.048Z,7.90
2019-01-29T16:48:39.846Z,7.87
2019-01-29T16:53:42.448Z,7.80
2019-01-29T16:58:45.044Z,9.17
2019-01-29T17:03:47.753Z,7.80
2019-01-29T17:08:50.219Z,8.43
2019-01-29T17:13:52.374Z,8.40
2019-01-29T17:18:54.918Z,8.53
2019-01-29T17:23:57.821Z,8.33
2019-01-29T17:29:00.157Z,7.60
2019-01-29T17:34:02.392Z,7.77
2019-01-29T17:39:07.478Z,7.80
2019-01-29T17:44:11.073Z,7.20
2019-01-29T17:49:13.967Z,7.93
2019-01-29T17:54:16.206Z,7.60
2019-01-29T17:59:18.725Z,7.50
2019-01-29T18:04:21.216Z,6.90
2019-01-29T18:09:23.610Z,6.90
2019-01-29T18:14:26.413Z,6.83
2019-01-29T18:19:28.758Z,7.13
2019-01-29T18:24:31.337Z,7.63
2019-01-29T18:29:34.169Z,8.33
2019-01-29T18:34:36.747Z,7.63
2019-01-29T18:39:39.467Z,8.03
2019-01-29T18:44:42.109Z,7.90
2019-01-29T18:49:44.690Z,7.33
2019-01-29T18:54:47.114Z,6.93
2019-01-29T18:59:49.677Z,7.50
2019-01-29T19:04:52.000Z,6.90
2019-01-29T19:09:54.854Z,6.87
2019-01-29T19:14:57.554Z,6.87
2019-01-29T19:20:00.522Z,6.37
2019-01-29T19:25:04.226Z,7.13
2019-01-29T19:30:14.688Z,6.50
2019-01-29T19:35:17.706Z,7.70
2019-01-29T19:40:20.488Z,6.50
2019-01-29T19:45:29.862Z,6.60
2019-01-29T19:50:32.529Z,7.00
2019-01-29T19:55:37.894Z,7.60
2019-01-29T20:00:41.907Z,7.90
2019-01-29T20:05:44.140Z,8.20
2019-01-29T20:10:46.477Z,8.10
2019-01-29T20:15:49.460Z,7.93
2019-01-29T20:20:52.534Z,7.73
2019-01-29T20:25:55.479Z,6.57
2019-01-29T20:30:57.961Z,7.30
2019-01-29T20:36:00.172Z,6.90
2019-01-29T20:41:03.004Z,7.10
2019-01-29T20:46:05.670Z,7.20
2019-01-29T20:51:08.455Z,7.50
2019-01-29T20:56:10.814Z,6.50
2019-01-29T21:01:13.714Z,7.23
2019-01-29T21:06:16.181Z,7.37
2019-01-29T21:11:19.061Z,7.43
2019-01-29T21:16:21.595Z,7.63
2019-01-29T21:21:24.203Z,6.80
2019-01-29T21:26:26.723Z,6.53
2019-01-29T21:31:29.028Z,7.23
2019-01-29T21:36:31.472Z,7.00
2019-01-29T21:41:34.272Z,7.17
2019-01-29T21:46:36.498Z,6.80
2019-01-29T21:51:38.791Z,7.37
2019-01-29T21:56:41.264Z,6.70
2019-01-29T22:01:43.468Z,7.17
2019-01-29T22:06:46.319Z,6.70
2019-01-29T22:11:48.914Z,7.03
2019-01-29T22:16:51.202Z,7.07
2019-01-29T22:21:53.503Z,7.10
2019-01-29T22:26:55.715Z,6.77
2019-01-29T22:31:58.887Z,7.53
2019-01-29T22:37:02.063Z,7.77
2019-01-29T22:42:04.494Z,7.90
2019-01-29T22:47:06.724Z,7.40
2019-01-29T22:52:09.533Z,7.50
2019-01-29T22:57:11.717Z,8.20
2019-01-29T23:02:14.583Z,7.50
2019-01-29T23:07:30.092Z,8.83
2019-01-29T23:12:32.589Z,8.23
2019-01-29T23:17:36.313Z,8.90
2019-01-29T23:22:38.629Z,8.60
2019-01-29T23:27:42.047Z,9.30
2019-01-29T23:32:44.640Z,9.30
2019-01-29T23:37:47.505Z,10.07
2019-01-29T23:42:49.997Z,10.30
2019-01-29T23:48:01.367Z,10.80
2019-01-29T23:53:03.908Z,10.33
2019-01-29T23:58:06.410Z,10.33
